Time;durP1;ratioP1;P1;durP2;ratioP2;P2;SDS_P1;SDS_P2;PMS_P1;PMS_P2;Temp;Humidity;BMP_temperature;BMP_pressure;BME280_temperature;BME280_humidity;BME280_pressure;Samples;Min_cycle;Max_cycle;Signal;HPM_P1;HPM_P2
2022/01/29 00:04:31;;;;;;;32.13;11.23;;;6.60;99.90;;;;;;10243073;28;84177;-55
2022/01/29 00:09:31;;;;;;;33.95;12.43;;;6.60;99.90;;;;;;10247913;28;84488;-56
2022/01/29 00:14:33;;;;;;;28.27;11.57;;;6.70;99.90;;;;;;10247306;28;84870;-56
2022/01/29 00:19:35;;;;;;;32.10;11.98;;;6.60;99.90;;;;;;10247730;28;85231;-55
2022/01/29 00:24:36;;;;;;;25.92;12.07;;;6.60;99.90;;;;;;10247359;28;84304;-56
2022/01/29 00:29:39;;;;;;;27.23;11.80;;;6.60;99.90;;;;;;10248087;28;84932;-56
2022/01/29 00:34:40;;;;;;;37.17;12.63;;;6.60;99.90;;;;;;10249201;28;84016;-57
2022/01/29 00:39:41;;;;;;;24.15;10.55;;;6.60;99.90;;;;;;10244895;28;84213;-58
2022/01/29 00:44:43;;;;;;;27.25;11.57;;;6.60;99.90;;;;;;10256752;28;84743;-53
2022/01/29 00:49:44;;;;;;;24.85;9.55;;;6.60;99.90;;;;;;10246877;28;85288;-55
2022/01/29 00:54:45;;;;;;;24.48;9.27;;;6.60;99.90;;;;;;10245226;28;87056;-54
2022/01/29 00:59:45;;;;;;;26.25;10.30;;;6.60;99.90;;;;;;10246300;28;84306;-54
2022/01/29 01:04:47;;;;;;;27.20;9.82;;;6.60;99.90;;;;;;10246268;28;85826;-55
2022/01/29 01:09:47;;;;;;;21.73;9.73;;;6.60;99.90;;;;;;10246363;28;84131;-53
2022/01/29 01:14:48;;;;;;;21.02;8.93;;;6.60;99.90;;;;;;10244117;28;85105;-54
2022/01/29 01:19:49;;;;;;;21.10;8.77;;;6.60;99.90;;;;;;10246245;28;84760;-53
2022/01/29 01:24:49;;;;;;;27.88;9.48;;;6.60;99.90;;;;;;10244566;28;87062;-53
2022/01/29 01:29:50;;;;;;;24.40;9.73;;;6.50;99.90;;;;;;10245555;28;84811;-56
2022/01/29 01:34:54;;;;;;;20.35;9.00;;;6.60;99.90;;;;;;10246000;28;85059;-53
2022/01/29 01:39:54;;;;;;;24.88;9.60;;;6.60;99.90;;;;;;10245109;28;84095;-57
2022/01/29 01:44:56;;;;;;;26.50;9.32;;;6.70;99.90;;;;;;10245323;28;84101;-55
2022/01/29 01:49:57;;;;;;;21.85;9.23;;;6.60;99.90;;;;;;10244708;28;84326;-53
2022/01/29 01:54:58;;;;;;;27.73;10.40;;;6.60;99.90;;;;;;10245096;28;84715;-55
2022/01/29 01:59:58;;;;;;;25.08;9.00;;;6.70;99.90;;;;;;10244840;28;84098;-53
2022/01/29 02:04:59;;;;;;;24.00;9.70;;;6.60;99.90;;;;;;10244607;28;84447;-56
2022/01/29 02:10:00;;;;;;;26.90;10.07;;;6.60;99.90;;;;;;10242945;28;87132;-55
2022/01/29 02:15:05;;;;;;;27.52;10.07;;;6.60;99.90;;;;;;10243896;28;84044;-53
2022/01/29 02:20:06;;;;;;;23.33;9.40;;;6.60;99.90;;;;;;10242955;28;85987;-52
2022/01/29 02:25:26;;;;;;;24.77;9.50;;;6.60;99.90;;;;;;10245544;28;84958;-55
2022/01/29 02:30:32;;;;;;;23.05;9.57;;;6.70;99.90;;;;;;10251557;28;84095;-53
2022/01/29 02:35:36;;;;;;;23.63;9.57;;;6.60;99.90;;;;;;10251066;28;85228;-54
2022/01/29 02:40:49;;;;;;;26.27;9.40;;;6.60;99.90;;;;;;10251179;28;84123;-52
2022/01/29 02:45:52;;;;;;;27.42;10.25;;;6.60;99.90;;;;;;10250205;28;85977;-54
2022/01/29 02:50:55;;;;;;;23.83;8.70;;;6.60;99.90;;;;;;10250624;28;84929;-52
2022/01/29 02:55:55;;;;;;;28.67;9.20;;;6.60;99.90;;;;;;10251284;28;84108;-52
2022/01/29 03:00:56;;;;;;;24.90;9.38;;;6.60;99.90;;;;;;10249644;28;85892;-52
2022/01/29 03:05:57;;;;;;;23.85;9.35;;;6.60;99.90;;;;;;10250303;28;84691;-56
2022/01/29 03:10:58;;;;;;;23.02;8.98;;;6.60;99.90;;;;;;10268490;22;84103;-44
2022/01/29 03:15:58;;;;;;;17.40;7.63;;;6.50;99.90;;;;;;10247125;28;87453;-48
2022/01/29 03:20:59;;;;;;;21.30;9.10;;;6.40;99.90;;;;;;10248650;28;84639;-49
2022/01/29 03:26:00;;;;;;;24.88;8.52;;;6.50;99.90;;;;;;10248292;28;85007;-51
2022/01/29 03:31:00;;;;;;;25.73;8.07;;;6.50;99.90;;;;;;10248776;28;85097;-48
2022/01/29 03:36:01;;;;;;;19.70;8.48;;;6.60;99.90;;;;;;10249038;28;84928;-46
2022/01/29 03:41:02;;;;;;;20.85;8.25;;;6.60;99.90;;;;;;10286758;28;84966;-46
2022/01/29 03:46:02;;;;;;;23.48;9.05;;;6.60;99.90;;;;;;10270531;28;85979;-51
2022/01/29 03:51:03;;;;;;;23.95;8.88;;;6.60;99.90;;;;;;10263979;28;84966;-49
2022/01/29 03:56:04;;;;;;;26.25;9.48;;;6.60;99.90;;;;;;10287625;28;85415;-48
2022/01/29 04:01:04;;;;;;;27.20;9.32;;;6.60;99.90;;;;;;10287556;28;84954;-42
2022/01/29 04:06:05;;;;;;;24.58;8.07;;;6.60;99.90;;;;;;10287783;28;84252;-48
2022/01/29 04:11:07;;;;;;;17.77;7.53;;;6.60;99.90;;;;;;10287440;28;84901;-45
2022/01/29 04:16:08;;;;;;;17.48;8.38;;;6.60;99.90;;;;;;10287445;28;84338;-46
2022/01/29 04:21:10;;;;;;;26.33;9.70;;;6.60;99.90;;;;;;10287455;28;84723;-50
2022/01/29 04:26:10;;;;;;;21.48;8.25;;;6.60;99.90;;;;;;10280873;28;85225;-47
2022/01/29 04:31:17;;;;;;;18.98;7.72;;;6.50;99.90;;;;;;10286373;28;86013;-51
2022/01/29 04:36:17;;;;;;;17.42;6.80;;;6.60;99.90;;;;;;10288059;28;84124;-48
2022/01/29 04:41:21;;;;;;;16.67;7.28;;;6.70;99.90;;;;;;10286943;28;84815;-45
2022/01/29 04:46:22;;;;;;;16.27;6.40;;;6.70;99.90;;;;;;10286269;28;84258;-46
2022/01/29 04:51:24;;;;;;;15.23;6.75;;;6.70;99.90;;;;;;10263746;28;84073;-51
2022/01/29 04:56:24;;;;;;;16.67;7.47;;;6.70;99.90;;;;;;10245654;28;84966;-51
2022/01/29 05:01:25;;;;;;;15.55;6.97;;;6.70;99.90;;;;;;10243343;28;85071;-49
2022/01/29 05:06:25;;;;;;;14.30;6.30;;;6.80;99.90;;;;;;10245318;28;85096;-46
2022/01/29 05:11:27;;;;;;;16.13;7.10;;;6.80;99.90;;;;;;10243167;28;86097;-48
2022/01/29 05:27:01;;;;;;;13.88;6.53;;;6.70;99.90;;;;;;10245083;28;84066;-49
2022/01/29 05:32:05;;;;;;;15.15;6.05;;;6.70;99.90;;;;;;10245281;28;85103;-49
2022/01/29 05:37:06;;;;;;;16.92;7.55;;;6.80;99.90;;;;;;10238584;28;85235;-47
2022/01/29 05:42:07;;;;;;;13.30;6.57;;;6.80;99.90;;;;;;10243899;28;85316;-50
2022/01/29 05:47:08;;;;;;;16.33;6.72;;;6.80;99.90;;;;;;10244378;28;84093;-47
2022/01/29 05:52:08;;;;;;;15.50;6.55;;;6.80;99.90;;;;;;10244500;28;85265;-46
2022/01/29 05:57:09;;;;;;;13.30;6.05;;;6.80;99.90;;;;;;10241097;28;84789;-51
2022/01/29 06:02:10;;;;;;;14.45;6.30;;;6.90;99.90;;;;;;10247745;28;84867;-50
2022/01/29 06:07:11;;;;;;;15.38;6.97;;;6.80;99.90;;;;;;10250204;28;84753;-47
2022/01/29 06:12:11;;;;;;;15.52;6.78;;;6.90;99.90;;;;;;10249886;28;84010;-47
2022/01/29 06:17:12;;;;;;;22.73;9.15;;;6.90;99.90;;;;;;10248325;28;84060;-45
2022/01/29 06:22:14;;;;;;;18.45;8.35;;;6.90;99.90;;;;;;10250555;28;85100;-48
2022/01/29 06:27:14;;;;;;;22.23;7.95;;;7.00;99.90;;;;;;10247591;28;84801;-51
2022/01/29 06:32:17;;;;;;;18.05;7.30;;;7.00;99.90;;;;;;10248697;28;84921;-50
2022/01/29 06:37:17;;;;;;;21.08;9.07;;;7.00;99.90;;;;;;10207320;28;85858;-50
2022/01/29 06:42:18;;;;;;;22.00;8.68;;;7.00;99.90;;;;;;10209466;28;85126;-51
2022/01/29 06:47:19;;;;;;;28.77;9.23;;;7.00;99.90;;;;;;10224797;28;84313;-50
2022/01/29 06:52:19;;;;;;;24.80;8.75;;;7.00;99.90;;;;;;10257581;28;84260;-49
2022/01/29 06:57:20;;;;;;;22.05;9.05;;;7.00;99.90;;;;;;10288908;28;84835;-51
2022/01/29 07:02:21;;;;;;;24.23;9.95;;;7.00;99.90;;;;;;10250805;28;85426;-50
2022/01/29 07:07:21;;;;;;;26.00;9.07;;;7.10;99.90;;;;;;10247339;28;84812;-53
2022/01/29 07:12:22;;;;;;;30.88;10.55;;;7.10;99.90;;;;;;10240804;28;84953;-56
2022/01/29 07:17:24;;;;;;;25.52;8.95;;;7.20;99.90;;;;;;10248132;28;84292;-50
2022/01/29 07:22:25;;;;;;;23.67;8.65;;;7.20;99.90;;;;;;10248332;28;84854;-51
2022/01/29 07:27:26;;;;;;;24.48;9.90;;;7.20;99.90;;;;;;10249036;28;84678;-55
2022/01/29 07:32:26;;;;;;;27.02;10.20;;;7.30;99.90;;;;;;10248429;28;84869;-60
2022/01/29 07:37:27;;;;;;;27.17;10.02;;;7.30;99.90;;;;;;10247530;28;85044;-50
2022/01/29 07:42:27;;;;;;;36.65;11.93;;;7.30;99.90;;;;;;10254290;28;85073;-52
2022/01/29 07:47:28;;;;;;;27.48;9.93;;;7.30;99.90;;;;;;10247841;28;84222;-53
2022/01/29 07:52:31;;;;;;;29.98;10.80;;;7.40;99.90;;;;;;10246573;28;84224;-52
2022/01/29 07:57:32;;;;;;;28.83;11.20;;;7.40;99.90;;;;;;10247631;28;84305;-61
2022/01/29 08:02:32;;;;;;;32.95;11.98;;;7.40;99.90;;;;;;10249191;28;85069;-56
2022/01/29 08:07:33;;;;;;;36.78;12.50;;;7.40;99.90;;;;;;10248045;28;84205;-54
2022/01/29 08:12:34;;;;;;;31.08;10.80;;;7.40;99.90;;;;;;10246704;28;84931;-51
2022/01/29 08:17:35;;;;;;;34.30;12.00;;;7.50;99.90;;;;;;10246588;28;85184;-59
2022/01/29 08:22:35;;;;;;;30.98;11.75;;;7.60;99.90;;;;;;10225487;28;84265;-58
2022/01/29 08:27:36;;;;;;;30.02;11.38;;;7.50;99.90;;;;;;10248284;28;84331;-52
2022/01/29 08:32:41;;;;;;;27.67;10.48;;;7.60;99.90;;;;;;10248933;28;84999;-57
2022/01/29 08:37:42;;;;;;;32.65;11.35;;;7.70;99.90;;;;;;10245470;28;84823;-49
2022/01/29 08:42:42;;;;;;;25.55;10.23;;;7.70;99.90;;;;;;10241384;28;85105;-54
2022/01/29 08:47:43;;;;;;;24.60;9.38;;;7.60;99.90;;;;;;10246280;28;84146;-56
2022/01/29 08:52:44;;;;;;;25.40;9.25;;;7.70;99.90;;;;;;10245887;28;84419;-56
2022/01/29 08:57:45;;;;;;;25.30;10.02;;;7.60;99.90;;;;;;10246284;28;84313;-57
2022/01/29 09:02:46;;;;;;;23.98;9.57;;;7.70;99.90;;;;;;10237800;28;84938;-56
2022/01/29 09:07:47;;;;;;;19.85;8.25;;;7.70;99.90;;;;;;10234224;28;84881;-54
2022/01/29 09:12:48;;;;;;;18.58;8.68;;;7.70;99.90;;;;;;10242729;28;84769;-55
2022/01/29 09:17:49;;;;;;;19.77;7.25;;;7.90;99.90;;;;;;10242754;28;84114;-55
2022/01/29 09:22:49;;;;;;;21.05;7.15;;;7.90;99.90;;;;;;10239059;28;84999;-54
2022/01/29 09:27:50;;;;;;;14.40;6.47;;;7.90;99.90;;;;;;10251913;28;86647;-59
2022/01/29 09:32:51;;;;;;;22.42;8.02;;;7.90;99.90;;;;;;10254539;28;85015;-61
2022/01/29 09:37:51;;;;;;;15.88;6.90;;;8.00;99.90;;;;;;10257832;28;84042;-57
2022/01/29 09:42:52;;;;;;;15.52;6.85;;;8.00;99.90;;;;;;10256946;28;84982;-55
2022/01/29 09:48:01;;;;;;;12.50;6.15;;;8.10;99.90;;;;;;10248661;28;84872;-58
2022/01/29 09:53:04;;;;;;;21.98;6.35;;;8.20;99.90;;;;;;10250558;28;84236;-56
2022/01/29 09:58:04;;;;;;;16.05;6.30;;;8.20;99.90;;;;;;10251721;28;84280;-57
2022/01/29 10:03:11;;;;;;;15.50;6.38;;;8.30;99.90;;;;;;10250002;28;84913;-59
2022/01/29 10:08:12;;;;;;;15.82;6.60;;;8.30;99.90;;;;;;10251190;28;84173;-53
2022/01/29 10:13:39;;;;;;;13.05;5.88;;;8.40;99.90;;;;;;10252085;28;84083;-52
2022/01/29 10:18:41;;;;;;;14.65;6.15;;;8.40;99.90;;;;;;10250970;28;85430;-60
2022/01/29 10:23:44;;;;;;;17.92;7.55;;;8.40;99.90;;;;;;10251645;28;84946;-56
2022/01/29 10:28:53;;;;;;;13.85;6.90;;;8.50;99.90;;;;;;10251912;28;84264;-57
2022/01/29 10:33:54;;;;;;;14.63;6.63;;;8.60;99.90;;;;;;10252083;28;84989;-60
2022/01/29 10:38:57;;;;;;;11.05;6.10;;;8.50;99.90;;;;;;10250780;28;84491;-63
2022/01/29 10:44:19;;;;;;;14.27;6.03;;;8.60;99.90;;;;;;10282647;28;84313;-59
2022/01/29 10:49:26;;;;;;;10.90;5.53;;;8.70;99.90;;;;;;10272827;28;84985;-59
2022/01/29 10:54:28;;;;;;;12.95;6.10;;;8.80;99.90;;;;;;10255135;28;85603;-48
2022/01/29 10:59:35;;;;;;;13.30;6.20;;;8.80;99.90;;;;;;10276355;28;84193;-62
2022/01/29 11:04:37;;;;;;;12.18;5.70;;;8.80;99.90;;;;;;10289343;28;84564;-59
2022/01/29 11:09:41;;;;;;;11.88;5.28;;;8.90;99.90;;;;;;10303740;22;84776;-54
2022/01/29 11:14:43;;;;;;;10.80;5.43;;;8.90;99.90;;;;;;10242634;28;84958;-61
2022/01/29 11:19:44;;;;;;;10.35;5.10;;;9.00;99.90;;;;;;10251635;28;84317;-62
2022/01/29 11:24:48;;;;;;;13.05;5.50;;;9.10;99.90;;;;;;10249702;28;84775;-57
2022/01/29 11:30:18;;;;;;;12.27;5.55;;;9.20;99.90;;;;;;10249383;28;84847;-60
2022/01/29 11:35:19;;;;;;;13.85;5.78;;;9.20;99.90;;;;;;10244756;28;84998;-60
2022/01/29 11:40:27;;;;;;;13.02;6.93;;;9.30;99.90;;;;;;10245582;28;84253;-64
2022/01/29 11:45:40;;;;;;;14.65;6.85;;;9.30;99.90;;;;;;10249726;28;85118;-61
2022/01/29 11:50:42;;;;;;;12.93;6.45;;;9.40;99.90;;;;;;10247363;28;84150;-62
2022/01/29 11:55:55;;;;;;;17.67;7.35;;;9.50;99.90;;;;;;10246888;28;84606;-60
2022/01/29 12:01:02;;;;;;;10.90;6.13;;;9.60;99.90;;;;;;10248443;28;85890;-63
2022/01/29 12:06:14;;;;;;;13.98;6.85;;;9.70;99.90;;;;;;10249625;28;84826;-62
2022/01/29 12:11:15;;;;;;;12.95;6.30;;;9.80;99.90;;;;;;10233755;28;84222;-60
2022/01/29 12:16:57;;;;;;;14.98;6.85;;;9.90;99.90;;;;;;10247914;28;84840;-60
2022/01/29 12:21:59;;;;;;;12.20;5.82;;;10.00;99.90;;;;;;10247477;28;84198;-60
2022/01/29 12:27:00;;;;;;;11.43;5.78;;;10.10;99.90;;;;;;10240498;28;87157;-63
2022/01/29 12:32:02;;;;;;;8.73;4.93;;;10.10;99.90;;;;;;10248394;28;84773;-62
2022/01/29 12:37:13;;;;;;;11.20;5.75;;;10.10;99.90;;;;;;10244400;28;84141;-50
2022/01/29 12:47:30;;;;;;;9.75;5.13;;;10.10;99.90;;;;;;10249039;28;84035;-47
2022/01/29 12:52:32;;;;;;;12.43;5.47;;;10.20;99.90;;;;;;10246654;28;87655;-54
2022/01/29 12:57:47;;;;;;;8.95;4.65;;;10.20;99.90;;;;;;10247725;28;84322;-54
2022/01/29 13:02:51;;;;;;;9.45;5.10;;;10.20;99.90;;;;;;10246928;28;84088;-52
2022/01/29 13:07:52;;;;;;;7.43;4.13;;;10.20;99.90;;;;;;10250779;28;85112;-54
2022/01/29 13:12:52;;;;;;;7.80;3.83;;;10.20;99.90;;;;;;10246099;28;84305;-54
2022/01/29 13:17:53;;;;;;;10.48;4.40;;;10.30;99.90;;;;;;10240230;28;84218;-55
2022/01/29 13:22:54;;;;;;;8.35;4.47;;;10.30;99.90;;;;;;10246814;28;84838;-54
2022/01/29 13:28:06;;;;;;;10.63;4.55;;;10.40;99.90;;;;;;10246262;28;84169;-53
2022/01/29 13:33:17;;;;;;;8.25;5.25;;;10.40;99.90;;;;;;10243228;28;85113;-52
2022/01/29 13:38:29;;;;;;;9.05;4.53;;;10.40;99.90;;;;;;10245885;28;84934;-52
2022/01/29 13:43:41;;;;;;;7.50;3.90;;;10.50;99.90;;;;;;10239235;28;84790;-52
2022/01/29 13:48:54;;;;;;;9.38;3.72;;;10.40;99.90;;;;;;10239825;28;84959;-52
2022/01/29 13:53:58;;;;;;;7.70;3.53;;;10.50;99.90;;;;;;10243501;28;85539;-54
2022/01/29 13:59:07;;;;;;;7.45;4.22;;;10.50;99.90;;;;;;10243805;28;85058;-51
2022/01/29 14:04:32;;;;;;;6.35;4.05;;;10.60;99.90;;;;;;10248132;28;85229;-61
2022/01/29 14:09:46;;;;;;;6.90;4.10;;;10.60;99.90;;;;;;10242069;28;84967;-61
2022/01/29 14:14:55;;;;;;;9.38;4.03;;;10.60;99.90;;;;;;10247856;28;85010;-57
2022/01/29 14:19:58;;;;;;;7.55;4.47;;;10.60;99.90;;;;;;10246612;28;84810;-61
2022/01/29 14:25:03;;;;;;;6.03;3.92;;;10.60;99.90;;;;;;10253674;28;84122;-62
2022/01/29 14:30:05;;;;;;;8.38;3.60;;;10.60;99.90;;;;;;10265662;28;86178;-63
2022/01/29 14:35:08;;;;;;;5.78;3.60;;;10.60;99.90;;;;;;10248352;28;84629;-57
2022/01/29 14:40:12;;;;;;;6.55;2.92;;;10.50;99.90;;;;;;10248084;28;85102;-61
2022/01/29 14:45:14;;;;;;;6.63;3.72;;;10.50;99.90;;;;;;10246707;28;85170;-65
2022/01/29 14:50:17;;;;;;;4.97;3.35;;;10.40;99.90;;;;;;10252349;28;85113;-65
2022/01/29 14:55:17;;;;;;;7.25;3.65;;;10.40;99.90;;;;;;10250351;28;84091;-61
2022/01/29 15:00:19;;;;;;;5.97;3.25;;;10.40;99.90;;;;;;10252820;28;84881;-60
2022/01/29 15:05:23;;;;;;;7.85;2.53;;;10.40;99.90;;;;;;10254849;28;85047;-59
2022/01/29 15:10:26;;;;;;;5.78;2.75;;;10.30;99.90;;;;;;10249671;28;86344;-60
2022/01/29 15:15:27;;;;;;;4.43;2.60;;;10.30;99.90;;;;;;10251028;28;86169;-63
2022/01/29 15:20:28;;;;;;;6.85;2.28;;;10.20;99.90;;;;;;10250365;28;85138;-61
2022/01/29 15:25:38;;;;;;;2.95;2.15;;;10.30;99.90;;;;;;10252689;28;84606;-62
2022/01/29 15:30:41;;;;;;;4.22;2.55;;;10.20;99.90;;;;;;10252330;28;84962;-60
2022/01/29 15:35:42;;;;;;;5.35;2.70;;;10.20;99.90;;;;;;10253234;28;84319;-61
2022/01/29 15:40:52;;;;;;;5.28;2.70;;;10.30;99.90;;;;;;10264179;28;84545;-61
2022/01/29 15:45:53;;;;;;;5.97;2.63;;;10.40;99.90;;;;;;10250185;28;84886;-61
2022/01/29 15:50:55;;;;;;;3.55;2.42;;;10.30;99.90;;;;;;10247519;28;84344;-51
2022/01/29 15:55:56;;;;;;;3.42;2.08;;;10.40;99.90;;;;;;10246410;28;84132;-51
2022/01/29 16:00:59;;;;;;;4.50;2.50;;;10.40;99.90;;;;;;10248868;28;83996;-51
2022/01/29 16:06:00;;;;;;;3.55;2.00;;;10.50;99.90;;;;;;10246807;28;87114;-51
2022/01/29 16:11:00;;;;;;;4.00;1.95;;;10.50;99.90;;;;;;10249699;28;84344;-52
2022/01/29 16:16:01;;;;;;;3.60;1.95;;;10.60;99.90;;;;;;10251954;28;84958;-53
2022/01/29 16:21:03;;;;;;;4.22;1.80;;;10.60;99.90;;;;;;10250653;28;84251;-56
2022/01/29 16:26:05;;;;;;;4.53;1.77;;;10.70;99.90;;;;;;10248657;28;84147;-55
2022/01/29 16:31:05;;;;;;;2.47;1.30;;;10.70;99.90;;;;;;10246693;28;85176;-52
2022/01/29 16:36:06;;;;;;;2.10;1.38;;;10.90;99.90;;;;;;10248014;28;85042;-53
2022/01/29 16:41:09;;;;;;;3.75;1.35;;;11.00;99.90;;;;;;10247679;28;84043;-51
2022/01/29 16:46:10;;;;;;;3.15;1.27;;;11.00;99.90;;;;;;10247169;28;84404;-52
2022/01/29 16:51:11;;;;;;;4.65;1.30;;;11.00;99.90;;;;;;10247646;28;85350;-52
2022/01/29 16:56:11;;;;;;;1.92;1.13;;;11.10;99.90;;;;;;10245749;28;84107;-52
2022/01/29 17:01:13;;;;;;;4.82;1.25;;;11.10;99.90;;;;;;10245772;28;84276;-52
2022/01/29 17:06:14;;;;;;;1.67;1.17;;;11.20;99.90;;;;;;10245894;28;84055;-55
2022/01/29 17:11:15;;;;;;;6.65;1.58;;;11.10;99.90;;;;;;10267384;22;84970;-46
2022/01/29 17:16:15;;;;;;;3.70;1.45;;;11.10;99.90;;;;;;10265690;28;84042;-49
2022/01/29 17:21:16;;;;;;;2.25;1.27;;;11.10;99.90;;;;;;10253031;28;85245;-48
2022/01/29 17:26:17;;;;;;;3.50;1.60;;;11.10;99.90;;;;;;10239280;28;84787;-46
2022/01/29 17:31:19;;;;;;;6.60;1.35;;;11.00;99.90;;;;;;10246877;28;84198;-46
2022/01/29 17:36:20;;;;;;;3.40;1.45;;;11.00;99.90;;;;;;10237171;28;84942;-46
2022/01/29 17:41:21;;;;;;;6.50;1.80;;;11.00;99.90;;;;;;10254866;28;84720;-45
2022/01/29 17:46:22;;;;;;;5.35;1.92;;;11.00;99.90;;;;;;10213045;28;84090;-50
2022/01/29 17:51:24;;;;;;;4.72;1.77;;;11.00;99.90;;;;;;10210755;28;85070;-47
2022/01/29 17:56:25;;;;;;;4.97;0.93;;;11.00;99.90;;;;;;10226577;28;84198;-46
2022/01/29 18:01:26;;;;;;;2.65;0.63;;;11.10;18.20;;;;;;10242677;28;84206;-47
2022/01/29 18:06:27;;;;;;;5.43;1.63;;;11.10;1.00;;;;;;10248107;28;85144;-50
2022/01/29 18:11:28;;;;;;;7.53;1.10;;;11.00;1.00;;;;;;10280501;28;84217;-47
2022/01/29 18:16:30;;;;;;;4.47;0.98;;;10.90;99.90;;;;;;10292243;28;86041;-46
2022/01/29 18:21:31;;;;;;;3.28;1.50;;;10.90;99.90;;;;;;10292579;28;84863;-45
2022/01/29 18:26:32;;;;;;;3.88;0.80;;;10.80;99.90;;;;;;10245112;28;84993;-47
2022/01/29 18:31:32;;;;;;;2.13;0.73;;;10.70;99.90;;;;;;10244046;28;84705;-48
2022/01/29 18:36:33;;;;;;;11.05;1.25;;;10.60;99.90;;;;;;10264603;28;84154;-46
2022/01/29 18:41:34;;;;;;;7.97;1.25;;;10.60;99.90;;;;;;10241584;28;85030;-47
2022/01/29 18:46:35;;;;;;;2.30;0.90;;;10.50;99.90;;;;;;10221440;28;84240;-52
2022/01/29 18:51:35;;;;;;;6.35;1.15;;;10.40;99.90;;;;;;10250414;28;84785;-45
2022/01/29 18:56:37;;;;;;;10.10;1.98;;;10.30;99.90;;;;;;10244265;28;85985;-45
2022/01/29 19:01:38;;;;;;;5.32;1.10;;;10.20;99.90;;;;;;10246457;28;86126;-43
2022/01/29 19:06:39;;;;;;;6.47;1.20;;;10.10;99.90;;;;;;10216420;28;84713;-45
2022/01/29 19:11:39;;;;;;;3.70;1.00;;;10.10;99.90;;;;;;10244272;28;84945;-46
2022/01/29 19:16:44;;;;;;;6.30;1.40;;;10.00;99.90;;;;;;10244607;28;87310;-51
2022/01/29 19:21:45;;;;;;;5.53;1.33;;;9.90;99.90;;;;;;10283059;28;85021;-47
2022/01/29 19:26:46;;;;;;;8.57;2.13;;;9.80;1.00;;;;;;10248197;28;85924;-49
2022/01/29 19:31:46;;;;;;;3.75;0.90;;;9.70;1.00;;;;;;10250943;28;84560;-46
2022/01/29 19:36:47;;;;;;;10.23;1.42;;;9.70;1.00;;;;;;10249085;28;85959;-50
2022/01/29 19:41:48;;;;;;;5.38;0.85;;;9.60;1.00;;;;;;10279707;28;87651;-41
2022/01/29 19:46:48;;;;;;;4.30;0.90;;;9.50;1.00;;;;;;10264893;28;84284;-44
2022/01/29 19:51:49;;;;;;;9.45;2.17;;;9.40;1.00;;;;;;10246587;28;84917;-45
2022/01/29 19:56:50;;;;;;;9.68;1.75;;;9.40;1.00;;;;;;10248539;28;84457;-46
2022/01/29 20:01:50;;;;;;;12.93;2.20;;;9.40;1.00;;;;;;10218483;28;84451;-51
2022/01/29 20:06:52;;;;;;;10.18;1.45;;;9.30;1.00;;;;;;10217735;28;86676;-47
2022/01/29 20:11:52;;;;;;;6.80;1.33;;;9.20;1.00;;;;;;10276346;28;84922;-43
2022/01/29 20:16:53;;;;;;;20.80;1.75;;;9.20;1.00;;;;;;10263842;28;84937;-50
2022/01/29 20:21:54;;;;;;;10.60;1.42;;;9.20;1.00;;;;;;10245414;28;84920;-45
2022/01/29 20:26:55;;;;;;;5.13;1.27;;;9.10;1.00;;;;;;10245573;28;84223;-46
2022/01/29 20:31:57;;;;;;;5.65;1.02;;;9.00;1.00;;;;;;10244622;28;84771;-44
2022/01/29 20:36:57;;;;;;;11.65;1.08;;;9.00;1.00;;;;;;10241121;28;85194;-39
2022/01/29 20:41:58;;;;;;;6.80;1.25;;;8.90;1.00;;;;;;10249524;28;85351;-43
2022/01/29 20:46:59;;;;;;;11.85;1.83;;;8.90;1.00;;;;;;10246591;28;84079;-49
2022/01/29 20:52:00;;;;;;;12.60;1.58;;;8.80;1.00;;;;;;10244468;28;84355;-43
2022/01/29 20:57:00;;;;;;;4.10;1.00;;;8.80;1.00;;;;;;10244349;28;87407;-43
2022/01/29 21:02:02;;;;;;;14.18;2.00;;;8.70;1.00;;;;;;10245766;28;84996;-44
2022/01/29 21:07:05;;;;;;;6.20;1.25;;;8.70;1.00;;;;;;10239649;28;85223;-46
2022/01/29 21:12:06;;;;;;;11.20;1.77;;;8.60;1.00;;;;;;10243094;28;85178;-49
2022/01/29 21:17:07;;;;;;;8.85;1.90;;;8.50;1.00;;;;;;10242820;28;84940;-45
2022/01/29 21:22:11;;;;;;;5.80;1.02;;;8.50;1.00;;;;;;10245482;28;84452;-46
2022/01/29 21:27:13;;;;;;;2.70;0.65;;;8.40;1.00;;;;;;10244513;28;84312;-44
2022/01/29 21:32:13;;;;;;;3.10;0.90;;;8.40;1.00;;;;;;10246939;28;85592;-44
2022/01/29 21:37:14;;;;;;;4.97;1.20;;;8.40;1.00;;;;;;10249692;28;85352;-44
2022/01/29 21:42:15;;;;;;;4.15;0.68;;;8.50;1.00;;;;;;10250195;28;85053;-44
2022/01/29 21:47:15;;;;;;;8.35;1.50;;;8.50;1.00;;;;;;10250113;28;84143;-47
2022/01/29 21:52:16;;;;;;;6.05;1.35;;;8.50;1.00;;;;;;10254810;28;84154;-47
2022/01/29 21:57:17;;;;;;;5.95;0.85;;;8.50;1.00;;;;;;10251524;28;84881;-45
2022/01/29 22:02:17;;;;;;;12.80;1.15;;;8.60;1.00;;;;;;10251389;28;84841;-44
2022/01/29 22:07:18;;;;;;;6.78;1.50;;;8.50;1.00;;;;;;10250821;28;86147;-43
2022/01/29 22:12:19;;;;;;;5.95;1.35;;;8.60;1.00;;;;;;10275937;28;84692;-46
2022/01/29 22:17:20;;;;;;;5.72;1.13;;;8.60;1.00;;;;;;10266690;28;84996;-44
2022/01/29 22:22:20;;;;;;;3.00;0.88;;;8.60;1.00;;;;;;10270669;28;84259;-45
2022/01/29 22:27:22;;;;;;;3.17;0.82;;;8.30;1.00;;;;;;10251506;28;86677;-44
2022/01/29 22:32:23;;;;;;;8.90;1.33;;;7.90;76.20;;;;;;10270873;28;84203;-43
2022/01/29 22:37:24;;;;;;;4.60;0.93;;;7.70;82.50;;;;;;10268532;28;84525;-43
2022/01/29 22:42:25;;;;;;;3.95;0.70;;;7.70;45.10;;;;;;10274885;28;84966;-47
2022/01/29 22:47:26;;;;;;;7.97;0.65;;;7.80;1.00;;;;;;10270238;28;84113;-44
2022/01/29 22:52:28;;;;;;;7.10;1.23;;;7.80;1.00;;;;;;10269728;28;84193;-45
2022/01/29 22:57:29;;;;;;;7.78;1.42;;;7.90;1.00;;;;;;10264714;28;84310;-49
2022/01/29 23:02:30;;;;;;;7.50;1.23;;;8.00;1.00;;;;;;10270126;28;86411;-45
2022/01/29 23:07:35;;;;;;;3.78;1.08;;;7.90;1.00;;;;;;10267289;28;84966;-44
2022/01/29 23:17:49;;;;;;;1.35;0.68;;;7.30;64.10;;;;;;10309330;28;86634;-55
2022/01/29 23:28:03;;;;;;;13.35;1.52;;;7.10;5.50;;;;;;10288864;28;84166;-57
2022/01/29 23:38:23;;;;;;;5.68;0.77;;;7.20;1.00;;;;;;10275796;28;84042;-56
2022/01/29 23:53:44;;;;;;;9.48;1.00;;;7.30;1.00;;;;;;10292687;28;84290;-54
2022/01/29 23:58:45;;;;;;;5.38;0.73;;;7.30;1.00;;;;;;10305884;28;84334;-52
